sensor_id;sensor_type;location;lat;lon;timestamp;pressure;altitude;pressure_sealevel;temperature;humidity
56272;BME280;42177;48.914;18.160;2023-04-29T00:02:57;983.4;;;11.9;86
56272;BME280;42177;48.914;18.160;2023-04-29T00:07:57;983.1;;;12.1;84.2
56272;BME280;42177;48.914;18.160;2023-04-29T00:12:57;983.1;;;12.1;84.2
56272;BME280;42177;48.914;18.160;2023-04-29T00:17:57;983.3;;;12;84.1
56272;BME280;42177;48.914;18.160;2023-04-29T00:22:57;983.3;;;12;84.1
56272;BME280;42177;48.914;18.160;2023-04-29T00:27:57;983.2;;;12.3;82.8
56272;BME280;42177;48.914;18.160;2023-04-29T00:32:57;983.2;;;12.3;82.8
56272;BME280;42177;48.914;18.160;2023-04-29T00:37:57;983.1;;;12.2;82.4
56272;BME280;42177;48.914;18.160;2023-04-29T00:42:57;983.1;;;12.2;82.4
56272;BME280;42177;48.914;18.160;2023-04-29T00:47:57;983;;;12.2;82.8
56272;BME280;42177;48.914;18.160;2023-04-29T00:52:57;983;;;12.2;82.8
56272;BME280;42177;48.914;18.160;2023-04-29T00:57:57;983;;;12.3;82.4
56272;BME280;42177;48.914;18.160;2023-04-29T01:02:57;983;;;12.3;82.4
56272;BME280;42177;48.914;18.160;2023-04-29T01:08:01;982.9;;;12.1;82.9
56272;BME280;42177;48.914;18.160;2023-04-29T01:12:58;982.9;;;12.1;82.9
56272;BME280;42177;48.914;18.160;2023-04-29T01:17:58;982.9;;;12.1;82.7
56272;BME280;42177;48.914;18.160;2023-04-29T01:22:57;982.9;;;12.1;82.7
56272;BME280;42177;48.914;18.160;2023-04-29T01:28:01;982.9;;;12.1;82.9
56272;BME280;42177;48.914;18.160;2023-04-29T01:32:59;982.9;;;12.1;82.9
56272;BME280;42177;48.914;18.160;2023-04-29T01:38:00;982.9;;;12.1;82.2
56272;BME280;42177;48.914;18.160;2023-04-29T01:42:59;982.9;;;12.1;82.2
56272;BME280;42177;48.914;18.160;2023-04-29T01:47:57;982.8;;;12.1;82.3
56272;BME280;42177;48.914;18.160;2023-04-29T01:52:57;982.8;;;12.1;82.3
56272;BME280;42177;48.914;18.160;2023-04-29T01:57:57;982.9;;;12.1;82.4
56272;BME280;42177;48.914;18.160;2023-04-29T02:02:57;982.9;;;12.1;82.4
56272;BME280;42177;48.914;18.160;2023-04-29T02:07:57;983;;;12.3;81.9
56272;BME280;42177;48.914;18.160;2023-04-29T02:12:57;983;;;12.3;81.9
56272;BME280;42177;48.914;18.160;2023-04-29T02:17:57;982.8;;;12.4;82.5
56272;BME280;42177;48.914;18.160;2023-04-29T02:22:57;982.8;;;12.4;82.5
56272;BME280;42177;48.914;18.160;2023-04-29T02:27:57;982.9;;;12.3;82
56272;BME280;42177;48.914;18.160;2023-04-29T02:32:57;982.9;;;12.3;82
56272;BME280;42177;48.914;18.160;2023-04-29T02:37:57;982.9;;;12.4;81.2
56272;BME280;42177;48.914;18.160;2023-04-29T02:42:57;982.9;;;12.4;81.2
56272;BME280;42177;48.914;18.160;2023-04-29T02:47:57;982.9;;;12.4;81.1
56272;BME280;42177;48.914;18.160;2023-04-29T02:52:57;982.9;;;12.4;81.1
56272;BME280;42177;48.914;18.160;2023-04-29T02:57:57;983.1;;;12.2;81.8
56272;BME280;42177;48.914;18.160;2023-04-29T03:02:57;983.1;;;12.2;81.8
56272;BME280;42177;48.914;18.160;2023-04-29T03:07:57;983;;;12.3;83.6
56272;BME280;42177;48.914;18.160;2023-04-29T03:12:57;983;;;12.3;83.6
56272;BME280;42177;48.914;18.160;2023-04-29T03:17:57;982.8;;;12.3;86.3
56272;BME280;42177;48.914;18.160;2023-04-29T03:22:57;982.8;;;12.3;86.3
56272;BME280;42177;48.914;18.160;2023-04-29T03:27:57;982.8;;;12;87.6
56272;BME280;42177;48.914;18.160;2023-04-29T03:32:57;982.8;;;12;87.6
56272;BME280;42177;48.914;18.160;2023-04-29T03:37:57;982.8;;;12.1;88.2
56272;BME280;42177;48.914;18.160;2023-04-29T03:42:57;982.8;;;12.1;88.2
56272;BME280;42177;48.914;18.160;2023-04-29T03:47:57;982.8;;;12.2;89
56272;BME280;42177;48.914;18.160;2023-04-29T03:52:57;982.8;;;12.2;89
56272;BME280;42177;48.914;18.160;2023-04-29T03:57:57;982.9;;;12.2;89.2
56272;BME280;42177;48.914;18.160;2023-04-29T04:02:57;982.9;;;12.2;89.2
56272;BME280;42177;48.914;18.160;2023-04-29T04:07:57;983.1;;;12.2;89.7
56272;BME280;42177;48.914;18.160;2023-04-29T04:12:57;983.1;;;12.2;89.7
56272;BME280;42177;48.914;18.160;2023-04-29T04:17:57;983.1;;;12.1;91
56272;BME280;42177;48.914;18.160;2023-04-29T04:22:57;983.1;;;12.1;91
56272;BME280;42177;48.914;18.160;2023-04-29T04:27:57;983;;;12.2;91.1
56272;BME280;42177;48.914;18.160;2023-04-29T04:32:57;983;;;12.2;91.1
56272;BME280;42177;48.914;18.160;2023-04-29T04:37:57;982.9;;;12.4;89.4
56272;BME280;42177;48.914;18.160;2023-04-29T04:42:57;982.9;;;12.4;89.4
56272;BME280;42177;48.914;18.160;2023-04-29T04:47:57;982.7;;;12.2;88.6
56272;BME280;42177;48.914;18.160;2023-04-29T04:52:57;982.7;;;12.2;88.6
56272;BME280;42177;48.914;18.160;2023-04-29T04:57:57;982.7;;;12.3;87.8
56272;BME280;42177;48.914;18.160;2023-04-29T05:02:57;982.7;;;12.3;87.8
56272;BME280;42177;48.914;18.160;2023-04-29T05:07:57;982.7;;;12.3;84.9
56272;BME280;42177;48.914;18.160;2023-04-29T05:12:57;982.7;;;12.3;84.9
56272;BME280;42177;48.914;18.160;2023-04-29T05:17:57;982.8;;;12.5;82
56272;BME280;42177;48.914;18.160;2023-04-29T05:22:57;982.8;;;12.5;82
56272;BME280;42177;48.914;18.160;2023-04-29T05:27:57;982.8;;;12.7;79.9
56272;BME280;42177;48.914;18.160;2023-04-29T05:32:57;982.8;;;12.7;79.9
56272;BME280;42177;48.914;18.160;2023-04-29T05:37:57;983;;;12.8;79.4
56272;BME280;42177;48.914;18.160;2023-04-29T05:42:57;983;;;12.8;79.4
56272;BME280;42177;48.914;18.160;2023-04-29T05:47:57;983;;;13;78.5
56272;BME280;42177;48.914;18.160;2023-04-29T05:52:57;983;;;13;78.5
56272;BME280;42177;48.914;18.160;2023-04-29T05:57:57;983.2;;;13.1;76.6
56272;BME280;42177;48.914;18.160;2023-04-29T06:02:57;983.2;;;13.1;76.6
56272;BME280;42177;48.914;18.160;2023-04-29T06:07:57;983.1;;;12.9;76.2
56272;BME280;42177;48.914;18.160;2023-04-29T06:12:57;983.1;;;12.9;76.2
56272;BME280;42177;48.914;18.160;2023-04-29T06:17:57;983.2;;;13;75
56272;BME280;42177;48.914;18.160;2023-04-29T06:22:57;983.2;;;13;75
56272;BME280;42177;48.914;18.160;2023-04-29T06:27:57;983.3;;;13.3;74.2
56272;BME280;42177;48.914;18.160;2023-04-29T06:32:57;983.3;;;13.3;74.2
56272;BME280;42177;48.914;18.160;2023-04-29T06:37:57;983.5;;;13.1;73.4
56272;BME280;42177;48.914;18.160;2023-04-29T06:42:57;983.5;;;13.1;73.4
56272;BME280;42177;48.914;18.160;2023-04-29T06:47:57;983.5;;;13.3;73.5
56272;BME280;42177;48.914;18.160;2023-04-29T06:52:57;983.5;;;13.3;73.5
56272;BME280;42177;48.914;18.160;2023-04-29T06:57:57;983.4;;;13.5;73.2
56272;BME280;42177;48.914;18.160;2023-04-29T07:02:57;983.4;;;13.5;73.2
56272;BME280;42177;48.914;18.160;2023-04-29T07:07:57;983.4;;;13.7;73
56272;BME280;42177;48.914;18.160;2023-04-29T07:12:57;983.4;;;13.7;73
56272;BME280;42177;48.914;18.160;2023-04-29T07:17:57;983.5;;;13.5;73.8
56272;BME280;42177;48.914;18.160;2023-04-29T07:22:57;983.5;;;13.5;73.8
56272;BME280;42177;48.914;18.160;2023-04-29T07:27:57;983.7;;;13.6;74.2
56272;BME280;42177;48.914;18.160;2023-04-29T07:32:57;983.7;;;13.6;74.2
56272;BME280;42177;48.914;18.160;2023-04-29T07:37:57;983.7;;;13.4;75.1
56272;BME280;42177;48.914;18.160;2023-04-29T07:42:57;983.7;;;13.4;75.1
56272;BME280;42177;48.914;18.160;2023-04-29T07:47:57;983.7;;;13.4;74.8
56272;BME280;42177;48.914;18.160;2023-04-29T07:52:57;983.7;;;13.4;74.8
56272;BME280;42177;48.914;18.160;2023-04-29T07:57:57;983.8;;;13.2;76.1
56272;BME280;42177;48.914;18.160;2023-04-29T08:02:57;983.8;;;13.2;76.1
56272;BME280;42177;48.914;18.160;2023-04-29T08:07:57;984;;;13.4;74.9
56272;BME280;42177;48.914;18.160;2023-04-29T08:12:57;984;;;13.4;74.9
56272;BME280;42177;48.914;18.160;2023-04-29T08:17:57;983.8;;;13.8;73.5
56272;BME280;42177;48.914;18.160;2023-04-29T08:22:57;983.8;;;13.8;73.5
56272;BME280;42177;48.914;18.160;2023-04-29T08:27:57;984;;;13.7;73.7
56272;BME280;42177;48.914;18.160;2023-04-29T08:32:57;984;;;13.7;73.7
56272;BME280;42177;48.914;18.160;2023-04-29T08:37:57;984;;;13.7;72.3
56272;BME280;42177;48.914;18.160;2023-04-29T08:42:57;984;;;13.7;72.3
56272;BME280;42177;48.914;18.160;2023-04-29T08:47:57;984;;;14.5;72.6
56272;BME280;42177;48.914;18.160;2023-04-29T08:52:57;984;;;14.5;72.6
56272;BME280;42177;48.914;18.160;2023-04-29T08:57:57;984;;;13.5;72.7
56272;BME280;42177;48.914;18.160;2023-04-29T09:02:57;984;;;13.5;72.7
56272;BME280;42177;48.914;18.160;2023-04-29T09:07:57;983.8;;;13.7;72.4
56272;BME280;42177;48.914;18.160;2023-04-29T09:12:57;983.8;;;13.7;72.4
56272;BME280;42177;48.914;18.160;2023-04-29T09:17:57;983.9;;;13.2;76.8
56272;BME280;42177;48.914;18.160;2023-04-29T09:22:58;983.9;;;13.2;76.8
56272;BME280;42177;48.914;18.160;2023-04-29T09:27:57;983.9;;;13.6;78.6
56272;BME280;42177;48.914;18.160;2023-04-29T09:33:05;983.9;;;13.6;78.6
56272;BME280;42177;48.914;18.160;2023-04-29T09:38:07;983.8;;;14.3;77.4
56272;BME280;42177;48.914;18.160;2023-04-29T09:42:57;983.8;;;14.3;77.4
56272;BME280;42177;48.914;18.160;2023-04-29T09:48:00;983.8;;;14.7;71.6
56272;BME280;42177;48.914;18.160;2023-04-29T09:52:57;983.8;;;14.7;71.6
56272;BME280;42177;48.914;18.160;2023-04-29T09:57:57;983.9;;;15.9;68.1
56272;BME280;42177;48.914;18.160;2023-04-29T10:02:58;983.9;;;15.9;68.1
56272;BME280;42177;48.914;18.160;2023-04-29T10:07:57;983.6;;;15.6;65.7
56272;BME280;42177;48.914;18.160;2023-04-29T10:12:57;983.6;;;15.6;65.7
56272;BME280;42177;48.914;18.160;2023-04-29T10:17:58;983.7;;;16;60.8
56272;BME280;42177;48.914;18.160;2023-04-29T10:22:57;983.7;;;16;60.8
56272;BME280;42177;48.914;18.160;2023-04-29T10:27:57;983.5;;;15.8;58.8
56272;BME280;42177;48.914;18.160;2023-04-29T10:32:57;983.5;;;15.8;58.8
56272;BME280;42177;48.914;18.160;2023-04-29T10:37:57;983.5;;;15.9;60.2
56272;BME280;42177;48.914;18.160;2023-04-29T10:42:57;983.5;;;15.9;60.2
56272;BME280;42177;48.914;18.160;2023-04-29T10:48:13;983.5;;;16;60.2
56272;BME280;42177;48.914;18.160;2023-04-29T10:53:00;983.5;;;16;60.2
56272;BME280;42177;48.914;18.160;2023-04-29T10:57:57;983.3;;;16.3;60.5
56272;BME280;42177;48.914;18.160;2023-04-29T11:02:58;983.3;;;16.3;60.5
56272;BME280;42177;48.914;18.160;2023-04-29T11:08:09;983.4;;;15.4;63.3
56272;BME280;42177;48.914;18.160;2023-04-29T11:13:19;983.4;;;15.4;63.3
56272;BME280;42177;48.914;18.160;2023-04-29T11:17:57;983.4;;;15.3;63.8
56272;BME280;42177;48.914;18.160;2023-04-29T11:22:57;983.4;;;15.3;63.8
56272;BME280;42177;48.914;18.160;2023-04-29T11:27:57;983.4;;;15.2;64.3
56272;BME280;42177;48.914;18.160;2023-04-29T11:32:57;983.4;;;15.2;64.3
56272;BME280;42177;48.914;18.160;2023-04-29T11:37:57;983.3;;;15.3;64.4
56272;BME280;42177;48.914;18.160;2023-04-29T11:42:57;983.3;;;15.3;64.4
56272;BME280;42177;48.914;18.160;2023-04-29T11:47:57;983.5;;;15.4;64.6
56272;BME280;42177;48.914;18.160;2023-04-29T11:52:57;983.5;;;15.4;64.6
56272;BME280;42177;48.914;18.160;2023-04-29T11:57:57;983.6;;;15.5;65.6
56272;BME280;42177;48.914;18.160;2023-04-29T12:02:57;983.6;;;15.5;65.6
56272;BME280;42177;48.914;18.160;2023-04-29T12:07:57;983.9;;;15;67
56272;BME280;42177;48.914;18.160;2023-04-29T12:12:57;983.9;;;15;67
56272;BME280;42177;48.914;18.160;2023-04-29T12:17:58;983.7;;;14.8;76.3
56272;BME280;42177;48.914;18.160;2023-04-29T12:23:09;983.7;;;14.8;76.3
56272;BME280;42177;48.914;18.160;2023-04-29T12:27:58;983.7;;;15.2;78.3
56272;BME280;42177;48.914;18.160;2023-04-29T12:32:57;983.7;;;15.2;78.3
56272;BME280;42177;48.914;18.160;2023-04-29T12:37:57;983.5;;;15.5;78.4
56272;BME280;42177;48.914;18.160;2023-04-29T12:43:05;983.5;;;15.5;78.4
56272;BME280;42177;48.914;18.160;2023-04-29T12:47:57;983.4;;;15.7;77
56272;BME280;42177;48.914;18.160;2023-04-29T12:52:57;983.4;;;15.7;77
56272;BME280;42177;48.914;18.160;2023-04-29T12:57:57;983.1;;;15.7;76.9
56272;BME280;42177;48.914;18.160;2023-04-29T13:02:57;983.1;;;15.7;76.9
56272;BME280;42177;48.914;18.160;2023-04-29T13:07:57;983.3;;;15.9;76.8
56272;BME280;42177;48.914;18.160;2023-04-29T13:12:57;983.3;;;15.9;76.8
56272;BME280;42177;48.914;18.160;2023-04-29T13:17:57;983.3;;;16.7;75.4
56272;BME280;42177;48.914;18.160;2023-04-29T13:22:57;983.3;;;16.7;75.4
56272;BME280;42177;48.914;18.160;2023-04-29T13:27:57;983.2;;;17.3;68.4
56272;BME280;42177;48.914;18.160;2023-04-29T13:32:57;983.2;;;17.3;68.4
56272;BME280;42177;48.914;18.160;2023-04-29T13:37:57;983.1;;;17.9;64.7
56272;BME280;42177;48.914;18.160;2023-04-29T13:42:57;983.1;;;17.9;64.7
56272;BME280;42177;48.914;18.160;2023-04-29T13:47:57;983;;;16.8;69.9
56272;BME280;42177;48.914;18.160;2023-04-29T13:52:57;983;;;16.8;69.9
56272;BME280;42177;48.914;18.160;2023-04-29T13:57:57;983.1;;;16.4;68.3
56272;BME280;42177;48.914;18.160;2023-04-29T14:02:57;983.1;;;16.4;68.3
56272;BME280;42177;48.914;18.160;2023-04-29T14:07:57;983.2;;;16.1;70.5
56272;BME280;42177;48.914;18.160;2023-04-29T14:12:57;983.2;;;16.1;70.5
56272;BME280;42177;48.914;18.160;2023-04-29T14:17:57;983.1;;;16.4;70.3
56272;BME280;42177;48.914;18.160;2023-04-29T14:22:57;983.1;;;16.4;70.3
56272;BME280;42177;48.914;18.160;2023-04-29T14:27:57;983.1;;;16;71.2
56272;BME280;42177;48.914;18.160;2023-04-29T14:32:57;983.1;;;16;71.2
56272;BME280;42177;48.914;18.160;2023-04-29T14:37:57;983.1;;;16;71.9
56272;BME280;42177;48.914;18.160;2023-04-29T14:42:57;983.1;;;16;71.9
56272;BME280;42177;48.914;18.160;2023-04-29T14:47:57;982.9;;;16.7;69.9
56272;BME280;42177;48.914;18.160;2023-04-29T14:52:57;982.9;;;16.7;69.9
56272;BME280;42177;48.914;18.160;2023-04-29T14:57:57;982.8;;;16.3;69.6
56272;BME280;42177;48.914;18.160;2023-04-29T15:02:57;982.8;;;16.3;69.6
56272;BME280;42177;48.914;18.160;2023-04-29T15:07:57;983;;;16.7;68.2
56272;BME280;42177;48.914;18.160;2023-04-29T15:12:57;983;;;16.7;68.2
56272;BME280;42177;48.914;18.160;2023-04-29T15:17:57;982.9;;;16;69.7
56272;BME280;42177;48.914;18.160;2023-04-29T15:22:57;982.9;;;16;69.7
56272;BME280;42177;48.914;18.160;2023-04-29T15:27:57;982.8;;;16.1;69.9
56272;BME280;42177;48.914;18.160;2023-04-29T15:32:57;982.8;;;16.1;69.9
56272;BME280;42177;48.914;18.160;2023-04-29T15:37:57;982.9;;;16.2;71
56272;BME280;42177;48.914;18.160;2023-04-29T15:42:57;982.9;;;16.2;71
56272;BME280;42177;48.914;18.160;2023-04-29T15:47:57;982.9;;;16.5;72.4
56272;BME280;42177;48.914;18.160;2023-04-29T15:52:57;982.9;;;16.5;72.4
56272;BME280;42177;48.914;18.160;2023-04-29T15:57:57;982.9;;;16.1;75.7
56272;BME280;42177;48.914;18.160;2023-04-29T16:02:57;982.9;;;16.1;75.7
56272;BME280;42177;48.914;18.160;2023-04-29T16:07:57;982.7;;;16;73.5
56272;BME280;42177;48.914;18.160;2023-04-29T16:12:57;982.7;;;16;73.5
56272;BME280;42177;48.914;18.160;2023-04-29T16:17:57;982.8;;;16;72.8
56272;BME280;42177;48.914;18.160;2023-04-29T16:22:57;982.8;;;16;72.8
56272;BME280;42177;48.914;18.160;2023-04-29T16:27:57;982.8;;;16.1;72.7
56272;BME280;42177;48.914;18.160;2023-04-29T16:32:57;982.8;;;16.1;72.7
56272;BME280;42177;48.914;18.160;2023-04-29T16:37:57;982.9;;;16.1;73.9
56272;BME280;42177;48.914;18.160;2023-04-29T16:42:57;982.9;;;16.1;73.9
56272;BME280;42177;48.914;18.160;2023-04-29T16:47:57;982.9;;;16.3;75.8
56272;BME280;42177;48.914;18.160;2023-04-29T16:52:57;982.9;;;16.3;75.8
56272;BME280;42177;48.914;18.160;2023-04-29T16:57:57;982.9;;;16;75.8
56272;BME280;42177;48.914;18.160;2023-04-29T17:02:57;982.9;;;16;75.8
56272;BME280;42177;48.914;18.160;2023-04-29T17:07:57;983;;;16.3;76.7
56272;BME280;42177;48.914;18.160;2023-04-29T17:12:57;983;;;16.3;76.7
56272;BME280;42177;48.914;18.160;2023-04-29T17:17:57;983;;;16.2;76.2
56272;BME280;42177;48.914;18.160;2023-04-29T17:22:57;983;;;16.2;76.2
56272;BME280;42177;48.914;18.160;2023-04-29T17:27:57;983.1;;;15.8;77.2
56272;BME280;42177;48.914;18.160;2023-04-29T17:32:57;983.1;;;15.8;77.2
56272;BME280;42177;48.914;18.160;2023-04-29T17:37:57;983.1;;;15.6;78.3
56272;BME280;42177;48.914;18.160;2023-04-29T17:42:57;983.1;;;15.6;78.3
56272;BME280;42177;48.914;18.160;2023-04-29T17:47:57;983.1;;;15.4;82
56272;BME280;42177;48.914;18.160;2023-04-29T17:52:57;983.1;;;15.4;82
56272;BME280;42177;48.914;18.160;2023-04-29T17:57:57;983.3;;;15;84.6
56272;BME280;42177;48.914;18.160;2023-04-29T18:02:57;983.3;;;15;84.6
56272;BME280;42177;48.914;18.160;2023-04-29T18:07:57;983.3;;;14.8;86.4
56272;BME280;42177;48.914;18.160;2023-04-29T18:12:57;983.3;;;14.8;86.4
56272;BME280;42177;48.914;18.160;2023-04-29T18:17:57;983.5;;;14.9;86.3
56272;BME280;42177;48.914;18.160;2023-04-29T18:22:57;983.5;;;14.9;86.3
56272;BME280;42177;48.914;18.160;2023-04-29T18:27:57;983.6;;;14.6;86.6
56272;BME280;42177;48.914;18.160;2023-04-29T18:32:57;983.6;;;14.6;86.6
56272;BME280;42177;48.914;18.160;2023-04-29T18:37:57;983.7;;;14.5;85.7
56272;BME280;42177;48.914;18.160;2023-04-29T18:42:57;983.7;;;14.5;85.7
56272;BME280;42177;48.914;18.160;2023-04-29T18:47:57;983.6;;;14.3;87
56272;BME280;42177;48.914;18.160;2023-04-29T18:52:57;983.6;;;14.3;87
56272;BME280;42177;48.914;18.160;2023-04-29T18:57:57;983.8;;;13.9;90.7
56272;BME280;42177;48.914;18.160;2023-04-29T19:02:57;983.8;;;13.9;90.7
56272;BME280;42177;48.914;18.160;2023-04-29T19:07:57;984;;;14;90.2
56272;BME280;42177;48.914;18.160;2023-04-29T19:12:57;984;;;14;90.2
56272;BME280;42177;48.914;18.160;2023-04-29T19:17:57;984.1;;;13.7;91.1
56272;BME280;42177;48.914;18.160;2023-04-29T19:22:57;984.1;;;13.7;91.1
56272;BME280;42177;48.914;18.160;2023-04-29T19:27:57;984;;;14.2;89.7
56272;BME280;42177;48.914;18.160;2023-04-29T19:32:57;984;;;14.2;89.7
56272;BME280;42177;48.914;18.160;2023-04-29T19:37:57;984.1;;;13.8;90.7
56272;BME280;42177;48.914;18.160;2023-04-29T19:42:57;984.1;;;13.8;90.7
56272;BME280;42177;48.914;18.160;2023-04-29T19:47:57;984.2;;;13.7;90.8
56272;BME280;42177;48.914;18.160;2023-04-29T19:52:57;984.2;;;13.7;90.8
56272;BME280;42177;48.914;18.160;2023-04-29T19:57:57;984.2;;;13.8;90.9
56272;BME280;42177;48.914;18.160;2023-04-29T20:02:57;984.2;;;13.8;90.9
56272;BME280;42177;48.914;18.160;2023-04-29T20:07:57;984.2;;;13.6;92.1
56272;BME280;42177;48.914;18.160;2023-04-29T20:12:57;984.2;;;13.6;92.1
56272;BME280;42177;48.914;18.160;2023-04-29T20:17:57;984.3;;;13.7;91.8
56272;BME280;42177;48.914;18.160;2023-04-29T20:22:57;984.3;;;13.7;91.8
56272;BME280;42177;48.914;18.160;2023-04-29T20:27:57;984.4;;;13.6;92.2
56272;BME280;42177;48.914;18.160;2023-04-29T20:32:57;984.4;;;13.6;92.2
56272;BME280;42177;48.914;18.160;2023-04-29T20:37:57;984.3;;;13.4;92.9
56272;BME280;42177;48.914;18.160;2023-04-29T20:42:57;984.3;;;13.4;92.9
56272;BME280;42177;48.914;18.160;2023-04-29T20:47:57;984.5;;;13.4;93.7
56272;BME280;42177;48.914;18.160;2023-04-29T20:52:57;984.5;;;13.4;93.7
56272;BME280;42177;48.914;18.160;2023-04-29T20:57:57;984.3;;;13.2;95
56272;BME280;42177;48.914;18.160;2023-04-29T21:02:57;984.3;;;13.2;95
56272;BME280;42177;48.914;18.160;2023-04-29T21:07:57;984.4;;;13.4;94.1
56272;BME280;42177;48.914;18.160;2023-04-29T21:12:57;984.4;;;13.4;94.1
56272;BME280;42177;48.914;18.160;2023-04-29T21:17:57;984.5;;;13.4;94.6
56272;BME280;42177;48.914;18.160;2023-04-29T21:22:57;984.5;;;13.4;94.6
56272;BME280;42177;48.914;18.160;2023-04-29T21:27:57;984.5;;;13.3;95.4
56272;BME280;42177;48.914;18.160;2023-04-29T21:32:57;984.5;;;13.3;95.4
56272;BME280;42177;48.914;18.160;2023-04-29T21:37:57;984.5;;;13.1;96.7
56272;BME280;42177;48.914;18.160;2023-04-29T21:42:57;984.5;;;13.1;96.7
56272;BME280;42177;48.914;18.160;2023-04-29T21:47:58;984.5;;;13.1;96.8
56272;BME280;42177;48.914;18.160;2023-04-29T21:52:57;984.5;;;13.1;96.8
56272;BME280;42177;48.914;18.160;2023-04-29T21:57:57;984.5;;;13.4;94.6
56272;BME280;42177;48.914;18.160;2023-04-29T22:02:58;984.5;;;13.4;94.6
56272;BME280;42177;48.914;18.160;2023-04-29T22:07:58;984.5;;;13.4;95.2
56272;BME280;42177;48.914;18.160;2023-04-29T22:12:57;984.5;;;13.4;95.2
56272;BME280;42177;48.914;18.160;2023-04-29T22:17:57;984.5;;;13.4;95.6
56272;BME280;42177;48.914;18.160;2023-04-29T22:22:57;984.5;;;13.4;95.6
56272;BME280;42177;48.914;18.160;2023-04-29T22:27:57;984.4;;;13.2;95.6
56272;BME280;42177;48.914;18.160;2023-04-29T22:32:57;984.4;;;13.2;95.6
56272;BME280;42177;48.914;18.160;2023-04-29T22:37:57;984.6;;;13.3;96.6
56272;BME280;42177;48.914;18.160;2023-04-29T22:42:57;984.6;;;13.3;96.6
56272;BME280;42177;48.914;18.160;2023-04-29T22:47:57;984.6;;;13.2;95.9
56272;BME280;42177;48.914;18.160;2023-04-29T22:52:57;984.6;;;13.2;95.9
56272;BME280;42177;48.914;18.160;2023-04-29T22:57:57;984.6;;;13.6;94.7
56272;BME280;42177;48.914;18.160;2023-04-29T23:02:57;984.6;;;13.6;94.7
56272;BME280;42177;48.914;18.160;2023-04-29T23:07:57;984.6;;;13.3;97
56272;BME280;42177;48.914;18.160;2023-04-29T23:12:57;984.6;;;13.3;97
56272;BME280;42177;48.914;18.160;2023-04-29T23:17:57;984.6;;;13.6;95.8
56272;BME280;42177;48.914;18.160;2023-04-29T23:22:58;984.6;;;13.6;95.8
56272;BME280;42177;48.914;18.160;2023-04-29T23:27:57;984.5;;;13.5;96.2
56272;BME280;42177;48.914;18.160;2023-04-29T23:32:57;984.5;;;13.5;96.2
56272;BME280;42177;48.914;18.160;2023-04-29T23:37:57;984.6;;;13.5;96.3
56272;BME280;42177;48.914;18.160;2023-04-29T23:42:57;984.6;;;13.5;96.3
56272;BME280;42177;48.914;18.160;2023-04-29T23:47:57;984.7;;;13.4;96.9
56272;BME280;42177;48.914;18.160;2023-04-29T23:52:57;984.7;;;13.4;96.9
56272;BME280;42177;48.914;18.160;2023-04-29T23:57:57;984.6;;;13.5;96.7
